Pittsburg, NH

11:42 AM EST on December 21, 2014 (GMT -0500)
Mount Washington Regional | Change Station
CLOSE
Current Station
Airport
Location: Whitefield,
Elevation: 1073 ft
Nearby Weather Stations

Elev 1073 ft 44.37 °N, 71.54 °W | Updated 9 minutes ago

Overcast
Overcast
23 °F
Feels Like 23 °F
N
0
Wind Variable Wind from North

Today
High -- | Low -- °F
--% Chance of Precip.
Yesterday
High -- | Low -- °F
Precip. -- in
7:20 AM 4:06 PM
Waning Crescent, 0% visible
Pressure 30.29 in
Visibility 2.0 miles
Clouds Mostly Cloudy 3700 ft
Overcast 4700 ft
Dew Point 18 °F
Humidity 81%
Rainfall 0.00 in
Snow Depth Not available.
UV 1 out of 12
Pollen .10 out of 12
Air Quality Not available.
Flu Activity Not available.
SPECI KHIE 211633Z AUTO 00000KT 2SM -SN BKN037 OVC047 M05/M08 A3029 RMK AO2 SNB20 P0000 T10501078

More Conditions Fewer Conditions

Pressure 30.29 in
Visibility 2.0 miles
Clouds Mostly Cloudy 3700 ft
Overcast 4700 ft
Dew Point 18 °F
Humidity 81%
Rainfall 0.00 in
Snow Depth Not available.
UV 1 out of 12
Pollen .10 out of 12
Air Quality Not available.
Flu Activity Not available.
SPECI KHIE 211633Z AUTO 00000KT 2SM -SN BKN037 OVC047 M05/M08 A3029 RMK AO2 SNB20 P0000 T10501078

More Conditions Fewer Conditions

10-Day Weather Forecast

Almanac

Astronomy

Dec. 21, 2014 Rise Set
Actual Time
Civil Twilight
Nautical Twilight
Astronomical Twilight
Moon
Length of Visible Light
Length of Day
Tomorrow will be .
, % of the Moon is Illuminated

Today's Extremes

State Highs State Lows

Community

WunderPhotos

Upload Photos

1,779,433 photos uploaded!

WunderBlogs® & News

Nearby

Air Quality

  Air Quality AQ Index Pollutant
Not available.

Snow Depth

Station Depth Elevation

Earthquake Activity

City Distance Mag. Time & Date
Minimum magnitude displayed is 2.5.

Coastal Water Temperatures

Place Temperature

Nearby Weather Stations